sensor_id;sensor_type;location;lat;lon;timestamp;P1;durP1;ratioP1;P2;durP2;ratioP2
19107;SDS011;9686;48.832;9.126;2023-06-10T00:01:40;6.57;;;5.97;;
19107;SDS011;9686;48.832;9.126;2023-06-10T00:04:06;7.63;;;5.77;;
19107;SDS011;9686;48.832;9.126;2023-06-10T00:06:32;7.93;;;5.77;;
19107;SDS011;9686;48.832;9.126;2023-06-10T00:09:04;6.53;;;5.93;;
19107;SDS011;9686;48.832;9.126;2023-06-10T00:11:31;6.43;;;5.60;;
19107;SDS011;9686;48.832;9.126;2023-06-10T00:13:57;6.10;;;5.50;;
19107;SDS011;9686;48.832;9.126;2023-06-10T00:16:23;6.57;;;5.87;;
19107;SDS011;9686;48.832;9.126;2023-06-10T00:18:48;6.70;;;6.03;;
19107;SDS011;9686;48.832;9.126;2023-06-10T00:21:16;6.13;;;5.53;;
19107;SDS011;9686;48.832;9.126;2023-06-10T00:23:41;6.40;;;5.53;;
19107;SDS011;9686;48.832;9.126;2023-06-10T00:26:07;6.70;;;6.10;;
19107;SDS011;9686;48.832;9.126;2023-06-10T00:28:32;6.23;;;5.60;;
19107;SDS011;9686;48.832;9.126;2023-06-10T00:30:58;6.27;;;5.77;;
19107;SDS011;9686;48.832;9.126;2023-06-10T00:33:23;8.43;;;6.27;;
19107;SDS011;9686;48.832;9.126;2023-06-10T00:35:48;7.13;;;6.43;;
19107;SDS011;9686;48.832;9.126;2023-06-10T00:38:14;6.10;;;5.57;;
19107;SDS011;9686;48.832;9.126;2023-06-10T00:40:40;7.07;;;6.37;;
19107;SDS011;9686;48.832;9.126;2023-06-10T00:43:05;6.53;;;5.93;;
19107;SDS011;9686;48.832;9.126;2023-06-10T00:45:31;6.23;;;5.40;;
19107;SDS011;9686;48.832;9.126;2023-06-10T00:47:57;7.20;;;6.30;;
19107;SDS011;9686;48.832;9.126;2023-06-10T00:50:23;7.07;;;6.17;;
19107;SDS011;9686;48.832;9.126;2023-06-10T00:52:48;7.47;;;6.10;;
19107;SDS011;9686;48.832;9.126;2023-06-10T00:55:16;6.53;;;5.93;;
19107;SDS011;9686;48.832;9.126;2023-06-10T00:57:42;6.97;;;6.33;;
19107;SDS011;9686;48.832;9.126;2023-06-10T01:00:09;6.93;;;6.33;;
19107;SDS011;9686;48.832;9.126;2023-06-10T01:02:35;6.70;;;6.07;;
19107;SDS011;9686;48.832;9.126;2023-06-10T01:05:01;6.37;;;5.77;;
19107;SDS011;9686;48.832;9.126;2023-06-10T01:07:35;7.53;;;6.53;;
19107;SDS011;9686;48.832;9.126;2023-06-10T01:10:06;6.97;;;6.37;;
19107;SDS011;9686;48.832;9.126;2023-06-10T01:12:52;7.23;;;6.53;;
19107;SDS011;9686;48.832;9.126;2023-06-10T01:15:24;6.83;;;6.13;;
19107;SDS011;9686;48.832;9.126;2023-06-10T01:17:56;8.77;;;6.70;;
19107;SDS011;9686;48.832;9.126;2023-06-10T01:20:22;7.27;;;6.57;;
19107;SDS011;9686;48.832;9.126;2023-06-10T01:22:48;7.87;;;7.17;;
19107;SDS011;9686;48.832;9.126;2023-06-10T01:28:41;6.67;;;6.07;;
19107;SDS011;9686;48.832;9.126;2023-06-10T01:31:20;7.53;;;6.80;;
19107;SDS011;9686;48.832;9.126;2023-06-10T01:34:06;7.43;;;6.73;;
19107;SDS011;9686;48.832;9.126;2023-06-10T01:36:34;7.37;;;6.60;;
19107;SDS011;9686;48.832;9.126;2023-06-10T01:39:00;7.27;;;6.63;;
19107;SDS011;9686;48.832;9.126;2023-06-10T01:41:27;7.43;;;6.73;;
19107;SDS011;9686;48.832;9.126;2023-06-10T01:43:53;7.27;;;6.57;;
19107;SDS011;9686;48.832;9.126;2023-06-10T01:46:19;7.00;;;6.30;;
19107;SDS011;9686;48.832;9.126;2023-06-10T01:48:46;7.13;;;6.43;;
19107;SDS011;9686;48.832;9.126;2023-06-10T01:51:11;8.63;;;6.30;;
19107;SDS011;9686;48.832;9.126;2023-06-10T01:53:37;7.27;;;6.67;;
19107;SDS011;9686;48.832;9.126;2023-06-10T01:56:02;6.80;;;6.10;;
19107;SDS011;9686;48.832;9.126;2023-06-10T01:58:27;7.30;;;6.53;;
19107;SDS011;9686;48.832;9.126;2023-06-10T02:00:53;7.13;;;6.37;;
19107;SDS011;9686;48.832;9.126;2023-06-10T02:03:18;7.47;;;6.67;;
19107;SDS011;9686;48.832;9.126;2023-06-10T02:05:43;7.17;;;6.47;;
19107;SDS011;9686;48.832;9.126;2023-06-10T02:08:09;7.97;;;7.17;;
19107;SDS011;9686;48.832;9.126;2023-06-10T02:10:34;8.30;;;7.00;;
19107;SDS011;9686;48.832;9.126;2023-06-10T02:12:59;6.87;;;6.27;;
19107;SDS011;9686;48.832;9.126;2023-06-10T02:15:25;7.67;;;6.97;;
19107;SDS011;9686;48.832;9.126;2023-06-10T02:17:51;6.87;;;6.20;;
19107;SDS011;9686;48.832;9.126;2023-06-10T02:20:17;6.97;;;6.33;;
19107;SDS011;9686;48.832;9.126;2023-06-10T02:22:42;8.00;;;7.20;;
19107;SDS011;9686;48.832;9.126;2023-06-10T02:25:08;7.00;;;6.30;;
19107;SDS011;9686;48.832;9.126;2023-06-10T02:27:33;7.77;;;6.37;;
19107;SDS011;9686;48.832;9.126;2023-06-10T02:29:59;7.70;;;6.33;;
19107;SDS011;9686;48.832;9.126;2023-06-10T02:32:24;7.03;;;6.40;;
19107;SDS011;9686;48.832;9.126;2023-06-10T02:34:50;7.13;;;6.43;;
19107;SDS011;9686;48.832;9.126;2023-06-10T02:37:16;7.37;;;6.67;;
19107;SDS011;9686;48.832;9.126;2023-06-10T02:39:41;7.77;;;6.43;;
19107;SDS011;9686;48.832;9.126;2023-06-10T02:42:07;7.47;;;6.77;;
19107;SDS011;9686;48.832;9.126;2023-06-10T02:44:32;7.50;;;6.80;;
19107;SDS011;9686;48.832;9.126;2023-06-10T02:46:58;7.17;;;6.57;;
19107;SDS011;9686;48.832;9.126;2023-06-10T02:49:23;7.80;;;7.10;;
19107;SDS011;9686;48.832;9.126;2023-06-10T02:51:49;7.53;;;6.73;;
19107;SDS011;9686;48.832;9.126;2023-06-10T02:54:18;7.57;;;6.47;;
19107;SDS011;9686;48.832;9.126;2023-06-10T02:56:44;9.07;;;6.93;;
19107;SDS011;9686;48.832;9.126;2023-06-10T02:59:10;7.70;;;7.00;;
19107;SDS011;9686;48.832;9.126;2023-06-10T03:01:36;7.30;;;6.60;;
19107;SDS011;9686;48.832;9.126;2023-06-10T03:04:02;8.40;;;7.53;;
19107;SDS011;9686;48.832;9.126;2023-06-10T03:06:28;7.40;;;6.70;;
19107;SDS011;9686;48.832;9.126;2023-06-10T03:08:54;7.33;;;6.50;;
19107;SDS011;9686;48.832;9.126;2023-06-10T03:11:19;8.97;;;7.50;;
19107;SDS011;9686;48.832;9.126;2023-06-10T03:13:45;6.70;;;6.13;;
19107;SDS011;9686;48.832;9.126;2023-06-10T03:16:10;7.47;;;6.83;;
19107;SDS011;9686;48.832;9.126;2023-06-10T03:18:37;7.43;;;6.73;;
19107;SDS011;9686;48.832;9.126;2023-06-10T03:21:03;7.50;;;6.80;;
19107;SDS011;9686;48.832;9.126;2023-06-10T03:23:28;7.63;;;6.93;;
19107;SDS011;9686;48.832;9.126;2023-06-10T03:25:54;7.60;;;6.90;;
19107;SDS011;9686;48.832;9.126;2023-06-10T03:28:20;7.83;;;7.03;;
19107;SDS011;9686;48.832;9.126;2023-06-10T03:30:45;7.63;;;6.83;;
19107;SDS011;9686;48.832;9.126;2023-06-10T03:33:11;10.57;;;7.90;;
19107;SDS011;9686;48.832;9.126;2023-06-10T03:35:37;8.30;;;7.50;;
19107;SDS011;9686;48.832;9.126;2023-06-10T03:38:02;8.30;;;7.50;;
19107;SDS011;9686;48.832;9.126;2023-06-10T03:40:27;8.10;;;6.40;;
19107;SDS011;9686;48.832;9.126;2023-06-10T03:42:53;9.07;;;7.73;;
19107;SDS011;9686;48.832;9.126;2023-06-10T03:45:18;7.60;;;6.90;;
19107;SDS011;9686;48.832;9.126;2023-06-10T03:47:43;7.73;;;7.03;;
19107;SDS011;9686;48.832;9.126;2023-06-10T03:50:10;7.30;;;6.60;;
19107;SDS011;9686;48.832;9.126;2023-06-10T03:52:35;8.50;;;7.60;;
19107;SDS011;9686;48.832;9.126;2023-06-10T03:55:02;8.30;;;7.50;;
19107;SDS011;9686;48.832;9.126;2023-06-10T03:57:28;7.20;;;6.40;;
19107;SDS011;9686;48.832;9.126;2023-06-10T03:59:53;7.83;;;7.13;;
19107;SDS011;9686;48.832;9.126;2023-06-10T04:02:19;7.73;;;6.83;;
19107;SDS011;9686;48.832;9.126;2023-06-10T04:04:44;8.03;;;7.23;;
19107;SDS011;9686;48.832;9.126;2023-06-10T04:07:09;8.10;;;7.30;;
19107;SDS011;9686;48.832;9.126;2023-06-10T04:09:36;8.23;;;7.53;;
19107;SDS011;9686;48.832;9.126;2023-06-10T04:12:01;7.57;;;6.87;;
19107;SDS011;9686;48.832;9.126;2023-06-10T04:14:27;8.77;;;7.87;;
19107;SDS011;9686;48.832;9.126;2023-06-10T04:16:52;8.73;;;7.90;;
19107;SDS011;9686;48.832;9.126;2023-06-10T04:19:18;8.10;;;7.17;;
19107;SDS011;9686;48.832;9.126;2023-06-10T04:21:43;8.03;;;7.23;;
19107;SDS011;9686;48.832;9.126;2023-06-10T04:24:09;7.67;;;6.97;;
19107;SDS011;9686;48.832;9.126;2023-06-10T04:26:37;6.87;;;6.27;;
19107;SDS011;9686;48.832;9.126;2023-06-10T04:29:03;7.53;;;6.83;;
19107;SDS011;9686;48.832;9.126;2023-06-10T04:31:28;8.03;;;7.27;;
19107;SDS011;9686;48.832;9.126;2023-06-10T04:33:53;6.80;;;6.07;;
19107;SDS011;9686;48.832;9.126;2023-06-10T04:36:19;7.10;;;6.40;;
19107;SDS011;9686;48.832;9.126;2023-06-10T04:38:44;7.50;;;6.70;;
19107;SDS011;9686;48.832;9.126;2023-06-10T04:41:10;6.60;;;6.00;;
19107;SDS011;9686;48.832;9.126;2023-06-10T04:43:36;6.97;;;6.37;;
19107;SDS011;9686;48.832;9.126;2023-06-10T04:46:01;6.77;;;6.17;;
19107;SDS011;9686;48.832;9.126;2023-06-10T04:48:27;6.70;;;6.10;;
19107;SDS011;9686;48.832;9.126;2023-06-10T04:50:52;7.17;;;6.47;;
19107;SDS011;9686;48.832;9.126;2023-06-10T04:53:17;7.57;;;6.87;;
19107;SDS011;9686;48.832;9.126;2023-06-10T04:55:43;7.43;;;6.77;;
19107;SDS011;9686;48.832;9.126;2023-06-10T04:58:08;7.40;;;6.07;;
19107;SDS011;9686;48.832;9.126;2023-06-10T05:00:34;6.70;;;6.10;;
19107;SDS011;9686;48.832;9.126;2023-06-10T05:02:59;7.67;;;6.97;;
19107;SDS011;9686;48.832;9.126;2023-06-10T05:05:25;7.40;;;6.70;;
19107;SDS011;9686;48.832;9.126;2023-06-10T05:07:50;6.57;;;5.97;;
19107;SDS011;9686;48.832;9.126;2023-06-10T05:10:15;7.10;;;6.50;;
19107;SDS011;9686;48.832;9.126;2023-06-10T05:12:41;8.03;;;7.23;;
19107;SDS011;9686;48.832;9.126;2023-06-10T05:15:07;6.40;;;5.90;;
19107;SDS011;9686;48.832;9.126;2023-06-10T05:17:32;7.07;;;6.37;;
19107;SDS011;9686;48.832;9.126;2023-06-10T05:19:58;7.37;;;6.67;;
19107;SDS011;9686;48.832;9.126;2023-06-10T05:22:23;6.07;;;5.50;;
19107;SDS011;9686;48.832;9.126;2023-06-10T05:24:49;6.50;;;5.90;;
19107;SDS011;9686;48.832;9.126;2023-06-10T05:27:16;6.37;;;5.77;;
19107;SDS011;9686;48.832;9.126;2023-06-10T05:29:41;7.07;;;5.60;;
19107;SDS011;9686;48.832;9.126;2023-06-10T05:32:07;5.73;;;5.23;;
19107;SDS011;9686;48.832;9.126;2023-06-10T05:34:33;5.70;;;5.20;;
19107;SDS011;9686;48.832;9.126;2023-06-10T05:36:58;5.37;;;4.87;;
19107;SDS011;9686;48.832;9.126;2023-06-10T05:39:23;6.10;;;4.87;;
19107;SDS011;9686;48.832;9.126;2023-06-10T05:41:49;5.40;;;4.90;;
19107;SDS011;9686;48.832;9.126;2023-06-10T05:44:14;6.40;;;5.30;;
19107;SDS011;9686;48.832;9.126;2023-06-10T05:46:39;5.03;;;4.33;;
19107;SDS011;9686;48.832;9.126;2023-06-10T05:49:05;4.67;;;4.23;;
19107;SDS011;9686;48.832;9.126;2023-06-10T05:51:30;5.33;;;4.83;;
19107;SDS011;9686;48.832;9.126;2023-06-10T05:53:55;4.43;;;4.03;;
19107;SDS011;9686;48.832;9.126;2023-06-10T05:56:20;4.77;;;4.10;;
19107;SDS011;9686;48.832;9.126;2023-06-10T05:58:49;5.43;;;4.77;;
19107;SDS011;9686;48.832;9.126;2023-06-10T06:01:14;5.17;;;4.23;;
19107;SDS011;9686;48.832;9.126;2023-06-10T06:03:40;4.47;;;4.07;;
19107;SDS011;9686;48.832;9.126;2023-06-10T06:06:05;4.43;;;4.03;;
19107;SDS011;9686;48.832;9.126;2023-06-10T06:08:31;5.03;;;3.90;;
19107;SDS011;9686;48.832;9.126;2023-06-10T06:10:56;3.90;;;3.60;;
19107;SDS011;9686;48.832;9.126;2023-06-10T06:13:22;5.23;;;4.13;;
19107;SDS011;9686;48.832;9.126;2023-06-10T06:15:47;4.43;;;4.03;;
19107;SDS011;9686;48.832;9.126;2023-06-10T06:18:13;4.43;;;4.03;;
19107;SDS011;9686;48.832;9.126;2023-06-10T06:20:39;4.90;;;4.13;;
19107;SDS011;9686;48.832;9.126;2023-06-10T06:23:05;4.80;;;4.40;;
19107;SDS011;9686;48.832;9.126;2023-06-10T06:25:30;4.87;;;4.37;;
19107;SDS011;9686;48.832;9.126;2023-06-10T06:27:56;4.30;;;3.90;;
19107;SDS011;9686;48.832;9.126;2023-06-10T06:30:21;5.20;;;4.03;;
19107;SDS011;9686;48.832;9.126;2023-06-10T06:32:46;4.40;;;4.00;;
19107;SDS011;9686;48.832;9.126;2023-06-10T06:35:12;4.60;;;4.20;;
19107;SDS011;9686;48.832;9.126;2023-06-10T06:37:37;4.43;;;4.03;;
19107;SDS011;9686;48.832;9.126;2023-06-10T06:40:02;4.30;;;3.77;;
19107;SDS011;9686;48.832;9.126;2023-06-10T06:42:28;5.37;;;4.73;;
19107;SDS011;9686;48.832;9.126;2023-06-10T06:44:54;4.67;;;4.20;;
19107;SDS011;9686;48.832;9.126;2023-06-10T06:47:19;4.37;;;3.80;;
19107;SDS011;9686;48.832;9.126;2023-06-10T06:49:47;4.33;;;4.00;;
19107;SDS011;9686;48.832;9.126;2023-06-10T06:52:13;4.40;;;3.83;;
19107;SDS011;9686;48.832;9.126;2023-06-10T06:54:40;4.27;;;3.90;;
19107;SDS011;9686;48.832;9.126;2023-06-10T06:57:05;4.50;;;4.10;;
19107;SDS011;9686;48.832;9.126;2023-06-10T06:59:32;4.17;;;3.83;;
19107;SDS011;9686;48.832;9.126;2023-06-10T07:01:57;4.27;;;3.83;;
19107;SDS011;9686;48.832;9.126;2023-06-10T07:04:23;4.33;;;3.93;;
19107;SDS011;9686;48.832;9.126;2023-06-10T07:06:48;3.73;;;3.43;;
19107;SDS011;9686;48.832;9.126;2023-06-10T07:09:13;4.43;;;3.97;;
19107;SDS011;9686;48.832;9.126;2023-06-10T07:11:39;4.47;;;4.07;;
19107;SDS011;9686;48.832;9.126;2023-06-10T07:14:04;4.63;;;3.90;;
19107;SDS011;9686;48.832;9.126;2023-06-10T07:16:30;4.23;;;3.83;;
19107;SDS011;9686;48.832;9.126;2023-06-10T07:18:55;5.57;;;4.50;;
19107;SDS011;9686;48.832;9.126;2023-06-10T07:21:20;4.30;;;3.90;;
19107;SDS011;9686;48.832;9.126;2023-06-10T07:23:47;4.17;;;3.53;;
19107;SDS011;9686;48.832;9.126;2023-06-10T07:26:12;4.57;;;4.10;;
19107;SDS011;9686;48.832;9.126;2023-06-10T07:28:41;3.67;;;3.37;;
19107;SDS011;9686;48.832;9.126;2023-06-10T07:31:07;4.57;;;3.70;;
19107;SDS011;9686;48.832;9.126;2023-06-10T07:33:33;4.43;;;3.47;;
19107;SDS011;9686;48.832;9.126;2023-06-10T07:35:58;4.27;;;3.87;;
19107;SDS011;9686;48.832;9.126;2023-06-10T07:38:24;4.53;;;3.47;;
19107;SDS011;9686;48.832;9.126;2023-06-10T07:40:50;4.20;;;3.80;;
19107;SDS011;9686;48.832;9.126;2023-06-10T07:43:16;3.23;;;3.03;;
19107;SDS011;9686;48.832;9.126;2023-06-10T07:45:41;3.67;;;3.37;;
19107;SDS011;9686;48.832;9.126;2023-06-10T07:48:07;3.73;;;3.40;;
19107;SDS011;9686;48.832;9.126;2023-06-10T07:50:33;3.50;;;3.00;;
19107;SDS011;9686;48.832;9.126;2023-06-10T07:52:58;4.93;;;3.73;;
19107;SDS011;9686;48.832;9.126;2023-06-10T07:55:24;4.40;;;3.60;;
19107;SDS011;9686;48.832;9.126;2023-06-10T07:57:51;3.50;;;3.20;;
19107;SDS011;9686;48.832;9.126;2023-06-10T08:00:16;3.73;;;3.43;;
19107;SDS011;9686;48.832;9.126;2023-06-10T08:02:42;4.00;;;3.60;;
19107;SDS011;9686;48.832;9.126;2023-06-10T08:05:07;4.07;;;3.67;;
19107;SDS011;9686;48.832;9.126;2023-06-10T08:07:33;5.73;;;3.57;;
19107;SDS011;9686;48.832;9.126;2023-06-10T08:09:58;4.77;;;3.60;;
19107;SDS011;9686;48.832;9.126;2023-06-10T08:12:23;3.50;;;3.20;;
19107;SDS011;9686;48.832;9.126;2023-06-10T08:14:49;4.77;;;3.80;;
19107;SDS011;9686;48.832;9.126;2023-06-10T08:17:14;4.07;;;3.67;;
19107;SDS011;9686;48.832;9.126;2023-06-10T08:19:40;5.17;;;4.10;;
19107;SDS011;9686;48.832;9.126;2023-06-10T08:22:05;4.47;;;4.07;;
19107;SDS011;9686;48.832;9.126;2023-06-10T08:24:30;3.97;;;3.57;;
19107;SDS011;9686;48.832;9.126;2023-06-10T08:26:56;3.90;;;3.60;;
19107;SDS011;9686;48.832;9.126;2023-06-10T08:29:22;4.50;;;4.10;;
19107;SDS011;9686;48.832;9.126;2023-06-10T08:31:47;4.30;;;3.90;;
19107;SDS011;9686;48.832;9.126;2023-06-10T08:34:12;4.30;;;3.90;;
19107;SDS011;9686;48.832;9.126;2023-06-10T08:36:38;3.90;;;3.60;;
19107;SDS011;9686;48.832;9.126;2023-06-10T08:39:03;4.00;;;3.60;;
19107;SDS011;9686;48.832;9.126;2023-06-10T08:41:28;4.40;;;4.00;;
19107;SDS011;9686;48.832;9.126;2023-06-10T08:46:44;4.87;;;3.87;;
19107;SDS011;9686;48.832;9.126;2023-06-10T08:49:10;5.37;;;4.30;;
19107;SDS011;9686;48.832;9.126;2023-06-10T08:51:39;4.43;;;4.03;;
19107;SDS011;9686;48.832;9.126;2023-06-10T08:54:09;4.00;;;3.70;;
19107;SDS011;9686;48.832;9.126;2023-06-10T08:56:40;4.20;;;3.90;;
19107;SDS011;9686;48.832;9.126;2023-06-10T08:59:07;3.90;;;3.60;;
19107;SDS011;9686;48.832;9.126;2023-06-10T09:01:33;4.57;;;4.17;;
19107;SDS011;9686;48.832;9.126;2023-06-10T09:03:59;4.27;;;3.87;;
19107;SDS011;9686;48.832;9.126;2023-06-10T09:06:26;4.40;;;4.03;;
19107;SDS011;9686;48.832;9.126;2023-06-10T09:08:51;4.60;;;4.20;;
19107;SDS011;9686;48.832;9.126;2023-06-10T09:11:17;3.90;;;3.60;;
19107;SDS011;9686;48.832;9.126;2023-06-10T09:13:42;4.10;;;3.80;;
19107;SDS011;9686;48.832;9.126;2023-06-10T09:16:07;4.23;;;3.60;;
19107;SDS011;9686;48.832;9.126;2023-06-10T09:18:33;3.77;;;3.47;;
19107;SDS011;9686;48.832;9.126;2023-06-10T09:20:59;3.73;;;3.43;;
19107;SDS011;9686;48.832;9.126;2023-06-10T09:23:25;4.40;;;4.00;;
19107;SDS011;9686;48.832;9.126;2023-06-10T09:25:57;3.50;;;3.20;;
19107;SDS011;9686;48.832;9.126;2023-06-10T09:28:22;3.60;;;3.30;;
19107;SDS011;9686;48.832;9.126;2023-06-10T09:30:48;3.60;;;3.30;;
19107;SDS011;9686;48.832;9.126;2023-06-10T09:33:14;5.00;;;3.70;;
19107;SDS011;9686;48.832;9.126;2023-06-10T09:35:44;3.90;;;3.57;;
19107;SDS011;9686;48.832;9.126;2023-06-10T09:38:11;4.63;;;3.53;;
19107;SDS011;9686;48.832;9.126;2023-06-10T09:40:48;3.53;;;3.23;;
19107;SDS011;9686;48.832;9.126;2023-06-10T09:43:15;4.63;;;3.70;;
19107;SDS011;9686;48.832;9.126;2023-06-10T09:45:40;4.03;;;3.63;;
19107;SDS011;9686;48.832;9.126;2023-06-10T09:48:05;3.97;;;3.57;;
19107;SDS011;9686;48.832;9.126;2023-06-10T09:50:33;4.00;;;3.53;;
19107;SDS011;9686;48.832;9.126;2023-06-10T09:53:00;4.23;;;3.70;;
19107;SDS011;9686;48.832;9.126;2023-06-10T09:55:27;3.80;;;3.50;;
19107;SDS011;9686;48.832;9.126;2023-06-10T09:57:53;3.60;;;3.30;;
19107;SDS011;9686;48.832;9.126;2023-06-10T10:00:19;3.60;;;3.30;;
19107;SDS011;9686;48.832;9.126;2023-06-10T10:02:51;4.83;;;3.50;;
19107;SDS011;9686;48.832;9.126;2023-06-10T10:05:19;3.50;;;3.20;;
19107;SDS011;9686;48.832;9.126;2023-06-10T10:07:47;3.47;;;3.17;;
19107;SDS011;9686;48.832;9.126;2023-06-10T10:10:13;3.60;;;3.30;;
19107;SDS011;9686;48.832;9.126;2023-06-10T10:12:41;3.40;;;3.03;;
19107;SDS011;9686;48.832;9.126;2023-06-10T10:15:08;3.70;;;3.40;;
19107;SDS011;9686;48.832;9.126;2023-06-10T10:17:37;3.57;;;3.27;;
19107;SDS011;9686;48.832;9.126;2023-06-10T10:20:05;4.97;;;3.70;;
19107;SDS011;9686;48.832;9.126;2023-06-10T10:22:38;3.87;;;3.57;;
19107;SDS011;9686;48.832;9.126;2023-06-10T10:25:16;4.47;;;4.07;;
19107;SDS011;9686;48.832;9.126;2023-06-10T10:30:13;3.50;;;3.20;;
19107;SDS011;9686;48.832;9.126;2023-06-10T10:32:46;3.53;;;3.23;;
19107;SDS011;9686;48.832;9.126;2023-06-10T10:35:23;3.07;;;2.87;;
19107;SDS011;9686;48.832;9.126;2023-06-10T10:37:53;3.40;;;3.10;;
19107;SDS011;9686;48.832;9.126;2023-06-10T10:40:20;3.53;;;3.22;;
19107;SDS011;9686;48.832;9.126;2023-06-10T10:42:47;3.60;;;3.30;;
19107;SDS011;9686;48.832;9.126;2023-06-10T10:45:14;3.95;;;3.55;;
19107;SDS011;9686;48.832;9.126;2023-06-10T10:47:39;4.25;;;3.50;;
19107;SDS011;9686;48.832;9.126;2023-06-10T10:50:18;3.60;;;3.30;;
19107;SDS011;9686;48.832;9.126;2023-06-10T10:52:51;3.47;;;3.17;;
19107;SDS011;9686;48.832;9.126;2023-06-10T10:55:18;3.67;;;3.37;;
19107;SDS011;9686;48.832;9.126;2023-06-10T10:57:43;3.92;;;3.63;;
19107;SDS011;9686;48.832;9.126;2023-06-10T11:00:09;4.20;;;3.80;;
19107;SDS011;9686;48.832;9.126;2023-06-10T11:02:44;3.05;;;2.85;;
19107;SDS011;9686;48.832;9.126;2023-06-10T11:05:14;3.42;;;3.13;;
19107;SDS011;9686;48.832;9.126;2023-06-10T11:07:40;3.65;;;3.35;;
19107;SDS011;9686;48.832;9.126;2023-06-10T11:10:16;3.45;;;3.15;;
19107;SDS011;9686;48.832;9.126;2023-06-10T11:15:10;4.70;;;3.10;;
19107;SDS011;9686;48.832;9.126;2023-06-10T11:17:36;3.55;;;3.25;;
19107;SDS011;9686;48.832;9.126;2023-06-10T11:20:01;3.38;;;3.08;;
19107;SDS011;9686;48.832;9.126;2023-06-10T11:22:26;3.75;;;3.30;;
19107;SDS011;9686;48.832;9.126;2023-06-10T11:24:52;3.80;;;3.50;;
19107;SDS011;9686;48.832;9.126;2023-06-10T11:32:31;3.55;;;3.25;;
19107;SDS011;9686;48.832;9.126;2023-06-10T11:34:58;3.10;;;2.85;;
19107;SDS011;9686;48.832;9.126;2023-06-10T11:37:23;3.55;;;3.05;;
19107;SDS011;9686;48.832;9.126;2023-06-10T11:39:53;2.80;;;2.55;;
19107;SDS011;9686;48.832;9.126;2023-06-10T11:42:19;3.05;;;2.75;;
19107;SDS011;9686;48.832;9.126;2023-06-10T11:44:49;2.92;;;2.72;;
19107;SDS011;9686;48.832;9.126;2023-06-10T11:47:18;2.97;;;2.78;;
19107;SDS011;9686;48.832;9.126;2023-06-10T11:49:45;4.03;;;2.50;;
19107;SDS011;9686;48.832;9.126;2023-06-10T11:52:11;3.00;;;2.80;;
19107;SDS011;9686;48.832;9.126;2023-06-10T11:54:37;2.60;;;2.40;;
19107;SDS011;9686;48.832;9.126;2023-06-10T11:57:03;3.22;;;2.75;;
19107;SDS011;9686;48.832;9.126;2023-06-10T11:59:29;2.78;;;2.58;;
19107;SDS011;9686;48.832;9.126;2023-06-10T12:01:55;2.83;;;2.60;;
19107;SDS011;9686;48.832;9.126;2023-06-10T12:04:21;3.78;;;3.22;;
19107;SDS011;9686;48.832;9.126;2023-06-10T12:06:48;3.28;;;2.97;;
19107;SDS011;9686;48.832;9.126;2023-06-10T12:09:24;3.00;;;2.80;;
19107;SDS011;9686;48.832;9.126;2023-06-10T12:11:55;3.58;;;2.75;;
19107;SDS011;9686;48.832;9.126;2023-06-10T12:20:01;2.78;;;2.60;;
19107;SDS011;9686;48.832;9.126;2023-06-10T12:22:43;2.80;;;2.60;;
19107;SDS011;9686;48.832;9.126;2023-06-10T12:25:10;2.92;;;2.72;;
19107;SDS011;9686;48.832;9.126;2023-06-10T12:27:36;3.22;;;3.03;;
19107;SDS011;9686;48.832;9.126;2023-06-10T12:30:03;2.70;;;2.50;;
19107;SDS011;9686;48.832;9.126;2023-06-10T12:32:40;3.42;;;3.13;;
19107;SDS011;9686;48.832;9.126;2023-06-10T12:35:07;3.13;;;2.90;;
19107;SDS011;9686;48.832;9.126;2023-06-10T12:37:34;3.40;;;3.10;;
19107;SDS011;9686;48.832;9.126;2023-06-10T12:40:01;3.00;;;2.70;;
19107;SDS011;9686;48.832;9.126;2023-06-10T12:42:28;4.13;;;3.08;;
19107;SDS011;9686;48.832;9.126;2023-06-10T12:44:55;3.13;;;2.92;;
19107;SDS011;9686;48.832;9.126;2023-06-10T12:47:28;2.80;;;2.60;;
19107;SDS011;9686;48.832;9.126;2023-06-10T12:49:56;3.20;;;2.95;;
19107;SDS011;9686;48.832;9.126;2023-06-10T12:52:23;2.97;;;2.75;;
19107;SDS011;9686;48.832;9.126;2023-06-10T12:54:48;2.75;;;2.55;;
19107;SDS011;9686;48.832;9.126;2023-06-10T12:57:14;2.88;;;2.67;;
19107;SDS011;9686;48.832;9.126;2023-06-10T12:59:39;3.55;;;2.95;;
19107;SDS011;9686;48.832;9.126;2023-06-10T13:02:05;3.10;;;2.80;;
19107;SDS011;9686;48.832;9.126;2023-06-10T13:04:30;3.25;;;2.95;;
19107;SDS011;9686;48.832;9.126;2023-06-10T13:06:56;2.67;;;2.47;;
19107;SDS011;9686;48.832;9.126;2023-06-10T13:09:21;2.80;;;2.60;;
19107;SDS011;9686;48.832;9.126;2023-06-10T13:11:46;2.50;;;2.30;;
19107;SDS011;9686;48.832;9.126;2023-06-10T13:14:12;2.70;;;2.50;;
19107;SDS011;9686;48.832;9.126;2023-06-10T13:16:37;3.40;;;2.47;;
19107;SDS011;9686;48.832;9.126;2023-06-10T13:19:03;2.67;;;2.47;;
19107;SDS011;9686;48.832;9.126;2023-06-10T13:21:30;2.75;;;2.55;;
19107;SDS011;9686;48.832;9.126;2023-06-10T13:23:56;3.72;;;2.50;;
19107;SDS011;9686;48.832;9.126;2023-06-10T13:26:21;3.25;;;2.95;;
19107;SDS011;9686;48.832;9.126;2023-06-10T13:28:47;2.72;;;2.40;;
19107;SDS011;9686;48.832;9.126;2023-06-10T13:31:12;2.72;;;2.53;;
19107;SDS011;9686;48.832;9.126;2023-06-10T13:33:37;2.55;;;2.35;;
19107;SDS011;9686;48.832;9.126;2023-06-10T13:36:03;2.60;;;2.40;;
19107;SDS011;9686;48.832;9.126;2023-06-10T13:38:29;3.00;;;2.80;;
19107;SDS011;9686;48.832;9.126;2023-06-10T13:40:54;2.80;;;2.58;;
19107;SDS011;9686;48.832;9.126;2023-06-10T13:43:19;2.97;;;2.67;;
19107;SDS011;9686;48.832;9.126;2023-06-10T13:45:45;2.90;;;2.70;;
19107;SDS011;9686;48.832;9.126;2023-06-10T13:48:10;2.88;;;2.67;;
19107;SDS011;9686;48.832;9.126;2023-06-10T13:50:36;3.20;;;2.90;;
19107;SDS011;9686;48.832;9.126;2023-06-10T13:53:02;2.65;;;2.45;;
19107;SDS011;9686;48.832;9.126;2023-06-10T13:55:27;2.65;;;2.45;;
19107;SDS011;9686;48.832;9.126;2023-06-10T13:57:52;2.70;;;2.50;;
19107;SDS011;9686;48.832;9.126;2023-06-10T14:00:18;2.90;;;2.70;;
19107;SDS011;9686;48.832;9.126;2023-06-10T14:02:43;2.63;;;2.42;;
19107;SDS011;9686;48.832;9.126;2023-06-10T14:05:09;2.70;;;2.50;;
19107;SDS011;9686;48.832;9.126;2023-06-10T14:07:35;2.88;;;2.67;;
19107;SDS011;9686;48.832;9.126;2023-06-10T14:10:02;3.45;;;2.42;;
19107;SDS011;9686;48.832;9.126;2023-06-10T14:12:27;2.55;;;2.35;;
19107;SDS011;9686;48.832;9.126;2023-06-10T14:14:53;3.80;;;2.60;;
19107;SDS011;9686;48.832;9.126;2023-06-10T14:17:18;2.45;;;2.25;;
19107;SDS011;9686;48.832;9.126;2023-06-10T14:19:43;2.95;;;2.65;;
19107;SDS011;9686;48.832;9.126;2023-06-10T14:22:09;2.55;;;2.35;;
19107;SDS011;9686;48.832;9.126;2023-06-10T14:24:35;3.28;;;2.97;;
19107;SDS011;9686;48.832;9.126;2023-06-10T14:27:01;3.38;;;2.83;;
19107;SDS011;9686;48.832;9.126;2023-06-10T14:29:26;2.97;;;2.53;;
19107;SDS011;9686;48.832;9.126;2023-06-10T14:31:54;3.10;;;2.80;;
19107;SDS011;9686;48.832;9.126;2023-06-10T14:34:19;2.65;;;2.45;;
19107;SDS011;9686;48.832;9.126;2023-06-10T14:36:45;2.72;;;2.53;;
19107;SDS011;9686;48.832;9.126;2023-06-10T14:39:10;2.88;;;2.60;;
19107;SDS011;9686;48.832;9.126;2023-06-10T14:41:35;3.10;;;2.80;;
19107;SDS011;9686;48.832;9.126;2023-06-10T14:44:01;2.60;;;2.40;;
19107;SDS011;9686;48.832;9.126;2023-06-10T14:46:26;3.25;;;2.70;;
19107;SDS011;9686;48.832;9.126;2023-06-10T14:48:51;2.97;;;2.67;;
19107;SDS011;9686;48.832;9.126;2023-06-10T14:51:17;4.82;;;2.78;;
19107;SDS011;9686;48.832;9.126;2023-06-10T14:53:42;2.97;;;2.67;;
19107;SDS011;9686;48.832;9.126;2023-06-10T14:56:08;3.03;;;2.83;;
19107;SDS011;9686;48.832;9.126;2023-06-10T14:58:33;3.40;;;3.00;;
19107;SDS011;9686;48.832;9.126;2023-06-10T15:00:58;2.85;;;2.65;;
19107;SDS011;9686;48.832;9.126;2023-06-10T15:03:23;2.95;;;2.75;;
19107;SDS011;9686;48.832;9.126;2023-06-10T15:05:49;4.30;;;2.88;;
19107;SDS011;9686;48.832;9.126;2023-06-10T15:08:14;3.22;;;2.88;;
19107;SDS011;9686;48.832;9.126;2023-06-10T15:10:40;3.25;;;2.95;;
19107;SDS011;9686;48.832;9.126;2023-06-10T15:13:05;3.78;;;3.42;;
19107;SDS011;9686;48.832;9.126;2023-06-10T15:15:31;3.30;;;3.10;;
19107;SDS011;9686;48.832;9.126;2023-06-10T15:17:56;3.10;;;2.90;;